Time;durP1;ratioP1;P1;durP2;ratioP2;P2;SDS_P1;SDS_P2;PMS_P1;PMS_P2;Temp;Humidity;BMP_temperature;BMP_pressure;BME280_temperature;BME280_humidity;BME280_pressure;Samples;Min_cycle;Max_cycle;Signal;HPM_P1;HPM_P2
2022/10/09 00:00:08;;;;;;;3.90;0.65;;;;;;;11.25;77.08;101046.28;2062040;28;20294;-69
2022/10/09 00:01:19;;;;;;;4.57;0.85;;;;;;;11.25;77.17;101054.34;2068095;28;20065;-69
2022/10/09 00:02:25;;;;;;;2.55;0.90;;;;;;;11.24;77.30;101050.84;2051735;28;20043;-69
2022/10/09 00:03:29;;;;;;;4.82;1.45;;;;;;;11.17;77.42;101053.03;2062505;28;20046;-69
2022/10/09 00:04:32;;;;;;;1.98;0.80;;;;;;;11.14;77.60;101053.56;2062731;28;20061;-69
2022/10/09 00:05:34;;;;;;;5.47;1.10;;;;;;;11.12;77.03;101058.41;2070710;28;20038;-68
2022/10/09 00:06:39;;;;;;;3.80;1.13;;;;;;;11.08;77.51;101050.06;2062118;28;20050;-69
2022/10/09 00:07:45;;;;;;;4.03;1.20;;;;;;;11.05;77.67;101053.28;2063610;28;20038;-69
2022/10/09 00:08:53;;;;;;;2.88;0.90;;;;;;;11.04;77.74;101050.88;2069902;28;20303;-69
2022/10/09 00:09:55;;;;;;;3.17;0.68;;;;;;;11.04;77.91;101053.56;2054206;28;20316;-69
2022/10/09 00:10:58;;;;;;;4.70;0.75;;;;;;;11.06;77.68;101059.47;2046421;28;20054;-69
2022/10/09 00:12:01;;;;;;;3.95;1.10;;;;;;;11.06;77.50;101051.41;2054453;28;20881;-69
2022/10/09 00:13:03;;;;;;;1.25;0.47;;;;;;;11.04;77.49;101056.25;2063088;28;20292;-69
2022/10/09 00:14:11;;;;;;;2.38;0.65;;;;;;;11.02;78.07;101059.19;2070352;28;20289;-70
2022/10/09 00:15:16;;;;;;;6.40;1.15;;;;;;;11.02;77.90;101061.09;2068665;28;20292;-69
2022/10/09 00:16:24;;;;;;;0.85;0.57;;;;;;;10.99;77.46;101058.94;2062424;28;20034;-69
2022/10/09 00:17:28;;;;;;;4.28;1.10;;;;;;;10.99;77.83;101064.31;2047361;28;20035;-69
2022/10/09 00:18:31;;;;;;;1.88;0.73;;;;;;;10.99;78.08;101064.31;2055680;28;20304;-69
2022/10/09 00:19:35;;;;;;;1.75;0.70;;;;;;;10.98;78.04;101060.03;2062754;28;20038;-69
2022/10/09 00:20:44;;;;;;;4.53;0.60;;;;;;;10.97;78.25;101063.78;2054619;28;20541;-69
2022/10/09 00:21:46;;;;;;;4.47;0.70;;;;;;;10.99;78.33;101069.69;2062164;28;20061;-70
2022/10/09 00:22:48;;;;;;;2.22;0.68;;;;;;;10.97;77.73;101053.84;2054900;28;20510;-69
2022/10/09 00:23:51;;;;;;;2.42;1.05;;;;;;;10.96;77.96;101064.84;2039019;29;20051;-69
2022/10/09 00:24:53;;;;;;;3.88;0.90;;;;;;;10.96;78.04;101054.91;2039389;28;20047;-69
2022/10/09 00:26:00;;;;;;;1.23;0.65;;;;;;;10.93;78.06;101073.47;2046946;28;20035;-69
2022/10/09 00:27:05;;;;;;;3.22;0.70;;;;;;;10.88;78.01;101064.31;2055666;28;20046;-69
2022/10/09 00:28:12;;;;;;;3.25;1.00;;;;;;;10.88;78.12;101064.31;2070977;28;20060;-70
2022/10/09 00:29:18;;;;;;;3.28;0.60;;;;;;;10.87;77.99;101062.69;2050876;28;20050;-69
2022/10/09 00:30:23;;;;;;;4.68;1.00;;;;;;;10.82;77.97;101070.78;2053791;28;20398;-70
2022/10/09 00:31:31;;;;;;;2.38;0.80;;;;;;;10.83;78.04;101067.00;2061175;28;20293;-69
2022/10/09 00:32:33;;;;;;;3.92;0.80;;;;;;;10.83;78.17;101076.94;2037627;28;20502;-69
2022/10/09 00:33:39;;;;;;;4.85;0.90;;;;;;;10.82;77.90;101075.34;2047856;28;20043;-69
2022/10/09 00:34:48;;;;;;;1.30;0.70;;;;;;;10.81;78.76;101079.09;2062794;28;20058;-69
2022/10/09 00:35:57;;;;;;;3.53;0.50;;;;;;;10.77;78.59;101078.03;2055733;28;20313;-69
2022/10/09 00:37:02;;;;;;;1.45;0.60;;;;;;;10.72;78.57;101078.84;2054936;28;20047;-69
2022/10/09 00:38:06;;;;;;;5.32;0.73;;;;;;;10.73;78.72;101077.75;2054739;28;20290;-70
2022/10/09 00:39:14;;;;;;;2.13;0.80;;;;;;;10.72;79.12;101086.06;2047426;28;20283;-69
2022/10/09 00:40:15;;;;;;;2.15;0.70;;;;;;;10.67;78.84;101084.19;2046906;28;20046;-69
2022/10/09 00:41:20;;;;;;;3.58;0.77;;;;;;;10.63;78.80;101083.13;2054766;28;20038;-70
2022/10/09 00:42:25;;;;;;;1.80;0.70;;;;;;;10.61;79.10;101077.19;2046730;28;20302;-69
2022/10/09 00:43:51;;;;;;;3.17;0.77;;;;;;;10.62;79.50;101076.94;2047705;28;20039;-70
2022/10/09 00:44:58;;;;;;;1.27;0.57;;;;;;;10.62;79.06;101073.41;2057303;28;20301;-70
2022/10/09 00:46:05;;;;;;;3.08;0.60;;;;;;;10.64;79.20;101076.66;2060520;28;20301;-69
2022/10/09 00:47:32;;;;;;;6.00;0.90;;;;;;;10.65;79.96;101081.75;2064700;28;20034;-70
2022/10/09 00:48:37;;;;;;;4.22;0.73;;;;;;;10.64;79.46;101090.09;2060494;28;20298;-69
2022/10/09 00:49:42;;;;;;;3.30;0.95;;;;;;;10.60;79.58;101078.25;2063848;28;20292;-69
2022/10/09 00:50:56;;;;;;;2.25;0.60;;;;;;;10.56;79.57;101080.69;2063304;28;20285;-69
2022/10/09 00:52:05;;;;;;;1.23;0.57;;;;;;;10.56;80.01;101079.84;2056193;28;20304;-69
2022/10/09 00:53:14;;;;;;;4.03;1.15;;;;;;;10.54;79.97;101082.81;2047493;29;20298;-69
2022/10/09 00:54:25;;;;;;;3.03;0.80;;;;;;;10.54;80.40;101076.63;2049504;28;20297;-69
2022/10/09 00:55:34;;;;;;;1.48;0.82;;;;;;;10.53;79.68;101089.28;2056258;28;20153;-69
2022/10/09 00:56:40;;;;;;;3.35;0.70;;;;;;;10.53;80.47;101083.06;2056248;28;20286;-69
2022/10/09 00:57:45;;;;;;;1.52;0.80;;;;;;;10.56;80.46;101087.91;2056866;28;20294;-69
2022/10/09 00:58:52;;;;;;;4.55;1.00;;;;;;;10.52;80.48;101092.22;2056118;28;20290;-69
2022/10/09 00:59:54;;;;;;;3.35;0.60;;;;;;;10.50;79.53;101084.44;2049050;28;20294;-69
2022/10/09 01:00:59;;;;;;;5.95;0.88;;;;;;;10.40;79.80;101085.22;2045730;28;20306;-69
2022/10/09 01:02:05;;;;;;;2.58;0.70;;;;;;;10.38;80.29;101089.22;2056186;28;20297;-69
2022/10/09 01:03:12;;;;;;;2.17;0.70;;;;;;;10.38;80.42;101081.97;2029661;29;20307;-69
2022/10/09 01:04:15;;;;;;;2.17;0.77;;;;;;;10.43;80.97;101090.06;2049225;28;20286;-69
2022/10/09 01:05:28;;;;;;;3.20;0.75;;;;;;;10.44;80.39;101086.28;2056385;28;20289;-69
2022/10/09 01:07:05;;;;;;;2.92;0.70;;;;;;;10.47;80.50;101086.84;2055670;28;20293;-69
2022/10/09 01:08:23;;;;;;;2.35;0.88;;;;;;;10.48;80.22;101078.50;2052652;28;20743;-70
2022/10/09 01:09:41;;;;;;;5.88;0.77;;;;;;;10.50;80.49;101083.59;2042371;29;20310;-70
2022/10/09 01:11:13;;;;;;;3.05;0.80;;;;;;;10.48;80.34;101081.19;2049937;28;20307;-70
2022/10/09 01:12:39;;;;;;;8.05;2.35;;;;;;;10.52;79.84;101084.16;2051227;28;20290;-70
2022/10/09 01:13:51;;;;;;;2.03;1.08;;;;;;;10.51;79.68;101086.03;2051446;28;20479;-70
2022/10/09 01:15:15;;;;;;;0.93;0.40;;;;;;;10.46;79.62;101086.00;2041633;28;21010;-69
2022/10/09 01:16:36;;;;;;;2.90;0.60;;;;;;;10.46;79.44;101093.28;2039120;29;20304;-69
2022/10/09 01:18:06;;;;;;;1.25;0.57;;;;;;;10.43;79.07;101090.06;2042699;29;20298;-70
2022/10/09 01:19:29;;;;;;;0.95;0.40;;;;;;;10.46;79.57;101096.75;2043638;29;20289;-69
2022/10/09 01:20:43;;;;;;;3.22;0.70;;;;;;;10.47;79.16;101094.91;2048424;29;20043;-69
2022/10/09 01:22:17;;;;;;;0.60;0.55;;;;;;;10.48;79.25;101097.31;2056732;28;20669;-70
2022/10/09 01:23:31;;;;;;;2.38;0.52;;;;;;;10.50;79.67;101102.41;2052114;28;20275;-70
2022/10/09 01:24:38;;;;;;;1.90;0.60;;;;;;;10.47;79.30;101100.28;2050291;29;20322;-73
2022/10/09 01:26:06;;;;;;;4.05;1.30;;;;;;;10.35;78.92;101095.94;2049092;28;20305;-75
2022/10/09 01:27:26;;;;;;;3.25;0.60;;;;;;;10.29;78.90;101105.06;2050099;28;20795;-76
2022/10/09 01:28:37;;;;;;;3.53;0.80;;;;;;;10.25;79.45;101103.13;2045085;29;20287;-75
2022/10/09 01:30:03;;;;;;;1.95;0.45;;;;;;;10.23;79.54;101113.31;2043418;29;20303;-76
2022/10/09 01:31:12;;;;;;;1.33;0.70;;;;;;;10.13;79.74;101106.84;2052348;28;20905;-77
2022/10/09 01:32:19;;;;;;;3.25;0.50;;;;;;;10.11;80.26;101108.16;2066062;28;20037;-76
2022/10/09 01:33:23;;;;;;;3.50;0.60;;;;;;;10.13;79.83;101109.53;2065345;28;20282;-77
2022/10/09 01:34:26;;;;;;;2.10;0.80;;;;;;;10.13;80.30;101116.78;2065987;28;20304;-77
2022/10/09 01:35:32;;;;;;;0.77;0.55;;;;;;;10.14;80.68;101116.50;2058212;28;20266;-77
2022/10/09 01:36:37;;;;;;;2.08;0.55;;;;;;;10.17;80.32;101123.25;2057258;28;20287;-77
2022/10/09 01:37:49;;;;;;;3.28;0.60;;;;;;;10.18;80.09;101122.16;2056942;28;20286;-77
2022/10/09 01:38:56;;;;;;;1.92;0.57;;;;;;;10.19;80.08;101132.66;2051487;28;20864;-77
2022/10/09 01:39:58;;;;;;;2.53;0.70;;;;;;;10.23;80.86;101129.44;2050464;28;20289;-76
2022/10/09 01:41:09;;;;;;;2.95;0.60;;;;;;;10.25;80.51;101130.81;2051005;28;20291;-76
2022/10/09 01:42:17;;;;;;;0.93;0.60;;;;;;;10.25;80.52;101130.00;2051436;28;20298;-76
2022/10/09 01:43:22;;;;;;;1.60;0.60;;;;;;;10.25;80.76;101135.38;2051014;28;20723;-76
2022/10/09 01:44:29;;;;;;;3.17;0.75;;;;;;;10.19;80.85;101132.66;2050711;28;20278;-75
2022/10/09 01:45:42;;;;;;;4.60;0.98;;;;;;;10.19;81.02;101126.47;2034931;29;20385;-76
2022/10/09 01:46:47;;;;;;;2.83;0.60;;;;;;;10.09;81.12;101135.31;2038244;28;20292;-76
2022/10/09 01:47:54;;;;;;;6.57;2.55;;;;;;;10.09;81.89;101137.19;2050496;28;20287;-75
2022/10/09 01:49:28;;;;;;;7.65;1.70;;;;;;;10.11;82.07;101140.41;2049414;28;20287;-75
2022/10/09 01:50:46;;;;;;;3.47;0.70;;;;;;;10.13;82.20;101143.66;2055178;28;20291;-78
2022/10/09 01:51:55;;;;;;;0.82;0.50;;;;;;;10.13;82.69;101140.97;2051807;28;20283;-76
2022/10/09 01:53:13;;;;;;;2.83;0.60;;;;;;;10.09;82.08;101151.44;2056711;28;20285;-75
2022/10/09 01:54:29;;;;;;;0.85;0.50;;;;;;;10.09;82.83;101148.75;2048469;28;20775;-76
2022/10/09 01:55:55;;;;;;;3.00;0.70;;;;;;;10.13;82.50;101151.72;2035989;29;20808;-76
2022/10/09 01:57:01;;;;;;;2.72;0.60;;;;;;;10.17;83.00;101152.78;2040702;28;20286;-77
2022/10/09 01:58:36;;;;;;;1.80;0.70;;;;;;;10.26;83.13;101143.19;2051339;28;20279;-77
2022/10/09 01:59:47;;;;;;;1.42;0.75;;;;;;;10.31;83.68;101148.59;2062930;28;20278;-77
2022/10/09 02:01:15;;;;;;;1.60;0.50;;;;;;;10.32;83.87;101147.53;2049842;28;20972;-77
2022/10/09 02:02:19;;;;;;;3.60;0.77;;;;;;;10.35;83.44;101147.00;2028315;29;20283;-77
2022/10/09 02:03:23;;;;;;;3.35;0.50;;;;;;;10.39;83.52;101156.16;2026651;29;20654;-77
2022/10/09 02:04:27;;;;;;;2.45;0.60;;;;;;;10.40;83.29;101162.34;2034897;29;20288;-77
2022/10/09 02:05:31;;;;;;;3.50;0.68;;;;;;;10.42;83.70;101163.69;2042489;29;20047;-77
2022/10/09 02:06:37;;;;;;;8.27;0.80;;;;;;;10.46;83.75;101155.09;2042467;29;20707;-76
2022/10/09 02:07:42;;;;;;;66.38;3.75;;;;;;;10.45;83.98;101162.38;2042671;29;20320;-76
2022/10/09 02:08:52;;;;;;;3.92;0.85;;;;;;;10.46;83.95;101160.47;2049423;29;20051;-76
2022/10/09 02:09:56;;;;;;;3.65;0.80;;;;;;;10.40;84.24;101171.22;2049180;29;20054;-75
2022/10/09 02:11:05;;;;;;;2.60;0.88;;;;;;;10.41;84.68;101169.34;2050018;29;20302;-76
2022/10/09 02:12:13;;;;;;;2.15;0.45;;;;;;;10.42;84.44;101174.44;2050725;29;20286;-76
2022/10/09 02:13:18;;;;;;;4.07;0.75;;;;;;;10.46;84.25;101180.09;2050009;28;20310;-75
2022/10/09 02:14:22;;;;;;;2.00;0.70;;;;;;;10.49;84.88;101184.97;2049689;29;20287;-76
2022/10/09 02:15:40;;;;;;;2.53;0.80;;;;;;;10.50;84.32;101188.44;2035006;29;20292;-76
2022/10/09 02:16:56;;;;;;;2.85;0.60;;;;;;;10.49;84.59;101189.53;2045875;28;20043;-78
2022/10/09 02:18:06;;;;;;;2.25;0.65;;;;;;;10.49;84.73;101186.84;2058562;28;20758;-76
2022/10/09 02:19:17;;;;;;;4.78;0.75;;;;;;;10.44;84.64;101187.66;2057370;28;20293;-75
2022/10/09 02:20:33;;;;;;;2.80;0.80;;;;;;;10.43;85.11;101186.84;2051481;28;20058;-74
2022/10/09 02:21:47;;;;;;;2.00;0.70;;;;;;;10.43;84.72;101186.84;2058668;28;20353;-77
2022/10/09 02:22:53;;;;;;;2.55;0.63;;;;;;;10.42;86.12;101185.19;2065747;28;20281;-74
2022/10/09 02:24:03;;;;;;;5.70;0.73;;;;;;;10.43;86.06;101189.53;2057841;28;20292;-76
2022/10/09 02:25:08;;;;;;;2.90;0.93;;;;;;;10.45;85.98;101191.94;2051127;28;20302;-77
2022/10/09 02:26:12;;;;;;;3.28;0.60;;;;;;;10.47;86.10;101197.06;2057849;28;20045;-76
2022/10/09 02:27:20;;;;;;;1.80;0.63;;;;;;;10.49;85.90;101182.28;2065774;28;20286;-76
2022/10/09 02:28:23;;;;;;;1.80;0.60;;;;;;;10.51;86.38;101184.72;2065063;28;20655;-76
2022/10/09 02:29:26;;;;;;;2.30;0.85;;;;;;;10.53;86.22;101182.56;2065578;28;20277;-76
2022/10/09 02:30:38;;;;;;;2.85;0.60;;;;;;;10.54;86.07;101181.50;2049181;29;20329;-76
2022/10/09 02:31:44;;;;;;;2.72;0.65;;;;;;;10.55;86.66;101185.78;2042780;28;20299;-76
2022/10/09 02:32:53;;;;;;;1.60;0.70;;;;;;;10.57;86.52;101189.03;2057095;28;20297;-77
2022/10/09 02:34:01;;;;;;;1.77;0.52;;;;;;;10.57;86.01;101191.72;2049924;29;20046;-77
2022/10/09 02:35:05;;;;;;;1.40;0.57;;;;;;;10.54;86.39;101184.19;2041976;29;20074;-76
2022/10/09 02:36:15;;;;;;;3.15;0.70;;;;;;;10.53;86.08;101185.25;2049481;29;20054;-76
2022/10/09 02:37:20;;;;;;;2.38;0.60;;;;;;;10.53;86.82;101196.00;2049785;28;20298;-76
2022/10/09 02:38:30;;;;;;;1.48;0.65;;;;;;;10.51;86.48;101198.16;2042472;29;20282;-78
2022/10/09 02:39:35;;;;;;;2.90;0.82;;;;;;;10.50;86.36;101196.53;2049932;29;20301;-77
2022/10/09 02:40:41;;;;;;;1.35;0.65;;;;;;;10.48;86.39;101193.31;2049669;29;20354;-78
2022/10/09 02:41:47;;;;;;;2.03;0.60;;;;;;;10.48;86.37;101191.41;2050093;28;20467;-78
2022/10/09 02:42:51;;;;;;;4.00;0.68;;;;;;;10.44;86.74;101193.81;2041511;29;20790;-75
2022/10/09 02:43:58;;;;;;;8.35;0.63;;;;;;;10.41;86.36;101188.97;2042201;29;20032;-74
2022/10/09 02:45:04;;;;;;;4.32;0.93;;;;;;;10.37;86.60;101201.31;2049387;28;20278;-74
2022/10/09 02:46:12;;;;;;;2.15;0.60;;;;;;;10.33;86.54;101197.53;2048970;29;20062;-75
2022/10/09 02:47:17;;;;;;;3.25;0.68;;;;;;;10.29;86.42;101193.75;2056392;28;20293;-75
2022/10/09 02:48:26;;;;;;;3.72;0.70;;;;;;;10.28;87.00;101200.19;2049518;28;20885;-78
2022/10/09 02:49:34;;;;;;;5.38;0.90;;;;;;;10.24;87.02;101192.88;2050359;28;20051;-77
2022/10/09 02:50:39;;;;;;;2.40;0.60;;;;;;;10.22;86.69;101201.22;2056268;28;20282;-77
2022/10/09 02:51:47;;;;;;;1.15;0.68;;;;;;;10.17;86.97;101210.03;2057074;28;20294;-77
2022/10/09 02:52:52;;;;;;;2.20;0.75;;;;;;;10.14;87.08;101207.06;2049697;29;20039;-76
2022/10/09 02:54:05;;;;;;;2.22;0.63;;;;;;;10.10;86.82;101208.66;2049677;29;20047;-76
2022/10/09 02:55:09;;;;;;;4.68;0.90;;;;;;;10.09;87.08;101212.41;2050684;28;20283;-76
2022/10/09 02:56:15;;;;;;;3.35;0.75;;;;;;;10.05;86.56;101203.22;2050245;29;20635;-77
2022/10/09 02:57:22;;;;;;;3.05;0.60;;;;;;;10.01;87.45;101202.94;2057388;28;20289;-75
2022/10/09 02:58:26;;;;;;;3.42;0.73;;;;;;;9.97;86.91;101205.34;2056790;28;20278;-76
2022/10/09 02:59:31;;;;;;;2.25;0.57;;;;;;;9.95;87.04;101204.78;2049463;29;20283;-76
2022/10/09 03:00:38;;;;;;;4.40;0.70;;;;;;;9.93;86.86;101201.56;2051882;28;20290;-75
2022/10/09 03:01:42;;;;;;;3.17;0.45;;;;;;;9.90;87.52;101204.75;2056657;28;20297;-76
2022/10/09 03:02:49;;;;;;;7.93;0.95;;;;;;;9.87;87.65;101210.66;2058539;28;20039;-76
2022/10/09 03:03:55;;;;;;;1.20;0.65;;;;;;;9.85;87.28;101207.41;2049301;29;20279;-75
2022/10/09 03:04:58;;;;;;;15.10;2.55;;;;;;;9.84;87.83;101208.47;2043001;28;20290;-75
2022/10/09 03:06:21;;;;;;;3.58;0.70;;;;;;;9.82;87.29;101213.28;2073089;28;20292;-77
2022/10/09 03:07:24;;;;;;;5.55;0.70;;;;;;;9.81;87.65;101200.13;2065411;28;20277;-76
2022/10/09 03:08:26;;;;;;;1.83;0.75;;;;;;;9.79;87.58;101208.44;2057421;28;20666;-75
2022/10/09 03:09:31;;;;;;;4.13;0.63;;;;;;;9.77;87.47;101213.25;2065340;28;20770;-75
2022/10/09 03:10:35;;;;;;;2.97;0.70;;;;;;;9.74;87.44;101211.06;2065449;28;20357;-76
2022/10/09 03:11:40;;;;;;;4.28;0.70;;;;;;;9.70;87.60;101216.16;2073757;28;20292;-76
2022/10/09 03:12:45;;;;;;;3.58;0.90;;;;;;;9.70;88.29;101215.34;2073523;28;20690;-78
2022/10/09 03:13:48;;;;;;;1.35;0.80;;;;;;;9.70;87.74;101215.34;2065657;28;20297;-77
2022/10/09 03:14:53;;;;;;;2.00;0.60;;;;;;;9.69;88.47;101213.72;2065587;28;20281;-77
2022/10/09 03:16:00;;;;;;;4.30;0.70;;;;;;;9.68;88.85;101217.50;2064746;28;20285;-76
2022/10/09 03:17:02;;;;;;;1.42;0.60;;;;;;;9.69;88.82;101224.47;2056499;28;20305;-77
2022/10/09 03:18:10;;;;;;;1.80;0.63;;;;;;;9.71;88.71;101216.97;2065422;28;20281;-78
2022/10/09 03:19:17;;;;;;;2.95;0.80;;;;;;;9.74;89.16;101219.13;2065880;28;20773;-78
2022/10/09 03:20:23;;;;;;;2.42;0.65;;;;;;;9.76;88.55;101225.06;2058567;28;20829;-78
2022/10/09 03:21:29;;;;;;;3.97;0.70;;;;;;;9.72;88.66;101221.28;2065509;28;20458;-76
2022/10/09 03:22:33;;;;;;;3.40;0.70;;;;;;;9.70;88.34;101228.75;2065401;28;20297;-76
2022/10/09 03:23:36;;;;;;;3.03;0.60;;;;;;;9.72;88.15;101229.34;2065376;28;20419;-76
2022/10/09 03:24:40;;;;;;;1.55;0.65;;;;;;;9.74;88.84;101229.88;2065331;28;20753;-76
2022/10/09 03:25:59;;;;;;;1.70;0.50;;;;;;;9.75;88.71;101234.19;2066215;28;20377;-76
2022/10/09 03:27:01;;;;;;;4.85;1.13;;;;;;;9.75;88.58;101232.31;2065472;28;20301;-76
2022/10/09 03:28:04;;;;;;;0.90;0.50;;;;;;;9.73;88.34;101241.69;2057629;28;20298;-75
2022/10/09 03:29:12;;;;;;;2.97;0.47;;;;;;;9.73;88.07;101239.00;2057531;28;20317;-75
2022/10/09 03:30:15;;;;;;;2.80;0.60;;;;;;;9.67;88.21;101242.69;2065468;28;20665;-77
2022/10/09 03:31:19;;;;;;;3.55;0.60;;;;;;;9.63;88.42;101247.78;2073273;28;20300;-76
2022/10/09 03:32:34;;;;;;;4.13;0.82;;;;;;;9.59;88.05;101240.50;2060381;28;20298;-75
2022/10/09 03:33:39;;;;;;;2.45;0.70;;;;;;;9.56;88.05;101243.69;2051205;28;20414;-76
2022/10/09 03:34:45;;;;;;;5.47;0.73;;;;;;;9.57;88.74;101253.34;2058998;28;20286;-77
2022/10/09 03:35:51;;;;;;;4.20;0.68;;;;;;;9.56;89.19;101254.44;2073394;28;20701;-77
2022/10/09 03:36:57;;;;;;;4.43;0.60;;;;;;;9.54;88.42;101256.53;2073678;28;20688;-77
2022/10/09 03:37:59;;;;;;;5.63;0.63;;;;;;;9.53;88.91;101258.44;2073029;28;20749;-77
2022/10/09 03:39:06;;;;;;;1.60;0.50;;;;;;;9.51;88.43;101261.34;2065999;28;20292;-77
2022/10/09 03:40:10;;;;;;;5.68;0.50;;;;;;;9.49;88.33;101262.69;2056983;28;20313;-77
2022/10/09 03:41:15;;;;;;;5.05;0.55;;;;;;;9.47;88.51;101260.25;2040666;29;20295;-77
2022/10/09 03:42:23;;;;;;;7.90;0.93;;;;;;;9.44;88.74;101266.13;2051641;28;20286;-77
2022/10/09 03:43:28;;;;;;;4.15;0.70;;;;;;;9.43;89.15;101263.72;2064913;28;20278;-77
2022/10/09 03:44:30;;;;;;;3.08;0.57;;;;;;;9.43;89.04;101266.38;2057603;28;20309;-77
2022/10/09 03:45:55;;;;;;;3.75;0.50;;;;;;;9.40;88.82;101259.66;2057307;28;20317;-76
2022/10/09 03:46:57;;;;;;;1.00;0.60;;;;;;;9.38;89.14;101261.75;2060919;28;20280;-76
2022/10/09 03:48:02;;;;;;;1.90;0.60;;;;;;;9.36;89.01;101263.88;2057210;28;20282;-75
2022/10/09 03:49:07;;;;;;;1.55;0.70;;;;;;;9.37;89.27;101267.41;2056845;28;20789;-75
2022/10/09 03:50:12;;;;;;;4.03;0.57;;;;;;;9.34;89.32;101268.72;2057161;28;20662;-76
2022/10/09 03:51:18;;;;;;;1.77;0.40;;;;;;;9.31;89.39;101271.09;2057943;28;20302;-75
2022/10/09 03:52:20;;;;;;;2.63;0.60;;;;;;;9.30;89.78;101267.59;2064534;28;20312;-75
2022/10/09 03:53:23;;;;;;;2.45;0.80;;;;;;;9.32;89.22;101278.06;2065066;28;20293;-75
2022/10/09 03:54:25;;;;;;;4.22;0.80;;;;;;;9.33;89.72;101268.94;2057120;28;20290;-75
2022/10/09 03:55:28;;;;;;;2.25;0.50;;;;;;;9.33;89.40;101274.31;2049311;28;20313;-75
2022/10/09 03:56:30;;;;;;;4.38;0.70;;;;;;;9.29;89.02;101284.75;2049316;28;20282;-75
2022/10/09 03:57:31;;;;;;;3.45;0.70;;;;;;;9.29;89.27;101282.88;2049130;28;20305;-75
2022/10/09 03:58:36;;;;;;;1.75;0.70;;;;;;;9.30;89.71;101286.38;2049084;28;20294;-74
2022/10/09 03:59:39;;;;;;;1.30;0.43;;;;;;;9.30;89.49;101286.38;2056951;28;20286;-75
2022/10/09 04:00:46;;;;;;;3.28;1.10;;;;;;;9.35;90.19;101289.09;2038502;29;20300;-75
2022/10/09 04:01:48;;;;;;;3.58;0.65;;;;;;;9.40;90.35;101289.16;2034331;29;20292;-75
2022/10/09 04:02:51;;;;;;;3.33;0.65;;;;;;;9.45;89.96;101291.09;2032540;29;20349;-76
2022/10/09 04:03:55;;;;;;;7.15;1.27;;;;;;;9.47;89.98;101287.09;2048677;28;20293;-74
2022/10/09 04:05:01;;;;;;;2.85;0.80;;;;;;;9.48;89.99;101283.34;2048550;29;20296;-76
2022/10/09 04:06:04;;;;;;;3.38;0.98;;;;;;;9.52;90.09;101291.72;2041071;29;20279;-75
2022/10/09 04:07:07;;;;;;;2.67;0.65;;;;;;;9.52;90.58;101289.84;2041394;29;20288;-75
2022/10/09 04:08:10;;;;;;;2.05;0.80;;;;;;;9.56;90.61;101294.69;2049335;28;20785;-75
2022/10/09 04:09:14;;;;;;;4.53;0.60;;;;;;;9.58;90.72;101292.56;2048960;29;20654;-76
2022/10/09 04:10:16;;;;;;;1.75;0.63;;;;;;;9.60;90.27;101295.81;2041408;29;20785;-76
2022/10/09 04:11:19;;;;;;;4.28;0.80;;;;;;;9.58;90.39;101292.56;2048875;29;20283;-76
2022/10/09 04:12:22;;;;;;;1.77;1.10;;;;;;;9.61;90.59;101292.84;2049183;29;20647;-76
2022/10/09 04:13:28;;;;;;;3.42;0.60;;;;;;;9.63;90.41;101297.97;2041274;29;20288;-76
2022/10/09 04:14:34;;;;;;;2.42;0.75;;;;;;;9.65;90.70;101293.19;2042318;29;20299;-76
2022/10/09 04:15:39;;;;;;;1.80;0.70;;;;;;;9.64;90.06;101291.53;2049275;28;20303;-75
2022/10/09 04:16:43;;;;;;;2.67;0.55;;;;;;;9.64;89.73;101297.72;2049201;29;20303;-76
2022/10/09 04:17:47;;;;;;;2.40;0.60;;;;;;;9.67;90.34;101301.78;2046198;28;20295;-76
2022/10/09 04:18:56;;;;;;;3.45;0.60;;;;;;;9.68;90.29;101298.03;2058425;28;20290;-76
2022/10/09 04:20:03;;;;;;;3.92;0.90;;;;;;;9.70;90.37;101295.91;2058490;28;20105;-76
2022/10/09 04:21:08;;;;;;;2.63;0.70;;;;;;;9.69;90.43;101308.53;2049574;29;20283;-76
2022/10/09 04:22:16;;;;;;;1.95;0.88;;;;;;;9.70;90.24;101298.59;2048678;28;20808;-76
2022/10/09 04:23:27;;;;;;;2.65;0.70;;;;;;;9.67;89.67;101307.94;2057518;28;20402;-76
2022/10/09 04:24:33;;;;;;;2.40;0.70;;;;;;;9.65;89.81;101315.47;2048800;29;20790;-76
2022/10/09 04:25:36;;;;;;;1.98;0.75;;;;;;;9.60;89.61;101304.66;2049905;29;20786;-75
2022/10/09 04:26:44;;;;;;;4.03;1.00;;;;;;;9.60;89.44;101311.91;2043213;29;20295;-76
2022/10/09 04:27:47;;;;;;;1.73;0.68;;;;;;;9.57;89.74;101309.72;2042468;29;20288;-76
2022/10/09 04:28:53;;;;;;;3.20;0.90;;;;;;;9.54;90.13;101302.19;2050695;28;20294;-76
2022/10/09 04:29:58;;;;;;;1.65;0.80;;;;;;;9.56;89.50;101308.94;2050205;29;20303;-76
2022/10/09 04:31:04;;;;;;;2.45;0.63;;;;;;;9.54;89.80;101307.56;2035125;29;20303;-76
2022/10/09 04:32:10;;;;;;;3.67;0.60;;;;;;;9.49;89.09;101311.00;2043615;28;20291;-76
2022/10/09 04:33:12;;;;;;;3.78;1.00;;;;;;;9.44;89.70;101313.63;2049851;28;20762;-77
2022/10/09 04:34:14;;;;;;;3.40;0.95;;;;;;;9.42;89.37;101313.06;2042648;29;20302;-76
2022/10/09 04:35:19;;;;;;;2.65;0.70;;;;;;;9.39;89.49;101316.25;2050828;28;20290;-77
2022/10/09 04:36:24;;;;;;;4.35;1.05;;;;;;;9.39;90.07;101316.25;2050026;29;20306;-75
2022/10/09 04:37:26;;;;;;;3.85;0.65;;;;;;;9.39;89.68;101321.63;2041458;29;20306;-75
2022/10/09 04:38:30;;;;;;;0.82;0.63;;;;;;;9.38;89.60;101315.44;2042557;29;20814;-75
2022/10/09 04:39:37;;;;;;;1.55;0.70;;;;;;;9.40;89.57;101317.88;2051271;28;20290;-75
2022/10/09 04:40:43;;;;;;;3.22;0.88;;;;;;;9.44;90.28;101321.69;2042417;29;20669;-75
2022/10/09 04:41:50;;;;;;;6.18;0.90;;;;;;;9.47;90.75;101316.63;2036534;29;20781;-75
2022/10/09 04:42:55;;;;;;;2.95;0.77;;;;;;;9.46;89.81;101316.88;2050686;28;20294;-74
2022/10/09 04:43:59;;;;;;;5.80;1.00;;;;;;;9.49;90.40;101316.38;2058294;28;20301;-76
2022/10/09 04:45:03;;;;;;;7.20;1.00;;;;;;;9.49;89.71;101321.75;2058353;28;20290;-75
2022/10/09 04:46:10;;;;;;;4.10;1.00;;;;;;;9.51;89.96;101317.72;2058454;28;20290;-76
2022/10/09 04:47:12;;;;;;;5.90;1.35;;;;;;;9.49;90.13;101317.19;2057725;28;20281;-76
2022/10/09 04:48:17;;;;;;;4.70;0.80;;;;;;;9.46;89.78;101317.69;2047231;28;20298;-76
2022/10/09 04:49:24;;;;;;;3.42;0.80;;;;;;;9.45;90.17;101326.78;2043138;29;20314;-76
2022/10/09 04:50:28;;;;;;;2.42;0.80;;;;;;;9.47;89.75;101330.03;2052000;28;20291;-75
2022/10/09 04:51:37;;;;;;;7.00;1.67;;;;;;;9.48;89.87;101328.97;2066656;28;20286;-76
2022/10/09 04:52:44;;;;;;;1.40;0.90;;;;;;;9.45;89.66;101332.16;2065196;28;20046;-76
2022/10/09 04:53:52;;;;;;;2.58;0.90;;;;;;;9.44;89.53;101329.72;2058979;28;20631;-74
2022/10/09 04:54:54;;;;;;;4.72;0.90;;;;;;;9.45;89.71;101337.53;2058212;28;20312;-76
2022/10/09 04:55:57;;;;;;;1.50;0.70;;;;;;;9.46;89.82;101333.78;2042518;29;20696;-75
2022/10/09 04:57:01;;;;;;;4.30;0.80;;;;;;;9.48;89.90;101337.03;2050558;28;20624;-75
2022/10/09 04:58:05;;;;;;;2.20;0.70;;;;;;;9.48;89.87;101344.25;2057902;28;20289;-75
2022/10/09 04:59:11;;;;;;;1.55;0.60;;;;;;;9.49;90.15;101340.53;2058968;28;20294;-75
2022/10/09 05:00:17;;;;;;;5.18;0.75;;;;;;;9.50;89.98;101334.91;2066396;28;20289;-74
2022/10/09 05:01:24;;;;;;;2.60;1.27;;;;;;;9.50;90.26;101334.91;2066095;28;20282;-75
2022/10/09 05:02:30;;;;;;;3.85;0.90;;;;;;;9.54;90.25;101342.47;2066315;28;20289;-74
2022/10/09 05:03:33;;;;;;;3.40;1.00;;;;;;;9.55;90.37;101342.19;2057443;28;20321;-73
2022/10/09 05:04:38;;;;;;;7.00;0.80;;;;;;;9.59;90.62;101343.31;2057682;28;20381;-74
2022/10/09 05:05:44;;;;;;;3.08;0.70;;;;;;;9.63;90.85;101349.81;2057661;28;20296;-73
2022/10/09 05:06:48;;;;;;;2.70;0.57;;;;;;;9.66;90.48;101353.88;2058305;28;20301;-73
2022/10/09 05:07:51;;;;;;;3.10;0.73;;;;;;;9.65;90.64;101352.25;2066388;28;20270;-75
2022/10/09 05:08:57;;;;;;;2.55;0.60;;;;;;;9.56;89.76;101354.56;2065745;28;20289;-76
2022/10/09 05:10:05;;;;;;;2.50;0.55;;;;;;;9.52;90.55;101362.31;2058008;28;20301;-73
2022/10/09 05:11:13;;;;;;;1.83;0.90;;;;;;;9.51;89.76;101358.00;2050126;29;20298;-73
2022/10/09 05:12:16;;;;;;;3.40;0.60;;;;;;;9.52;90.13;101364.19;2051474;28;20278;-73
2022/10/09 05:13:22;;;;;;;3.97;0.65;;;;;;;9.57;89.98;101366.13;2058063;28;20298;-75
2022/10/09 05:14:25;;;;;;;4.03;0.65;;;;;;;9.62;90.48;101361.63;2058880;28;20278;-74
2022/10/09 05:15:27;;;;;;;2.20;0.70;;;;;;;9.67;90.17;101367.03;2066114;28;20785;-74